Time;durP1;ratioP1;P1;durP2;ratioP2;P2;SDS_P1;SDS_P2;PMS_P1;PMS_P2;Temp;Humidity;BMP_temperature;BMP_pressure;BME280_temperature;BME280_humidity;BME280_pressure;Samples;Min_cycle;Max_cycle;Signal;HPM_P1;HPM_P2
2021/06/04 00:01:33;;;;;;;5.95;4.50;;;15.50;63.50;;;;;;5010542;28;20586;-91
2021/06/04 00:04:00;;;;;;;4.90;4.03;;;15.50;64.00;;;;;;5012211;28;20245;-90
2021/06/04 00:06:27;;;;;;;8.00;4.70;;;15.40;64.50;;;;;;5009928;28;20209;-91
2021/06/04 00:08:54;;;;;;;5.10;4.32;;;15.40;63.80;;;;;;5011198;28;20210;-90
2021/06/04 00:11:23;;;;;;;7.95;4.10;;;15.30;63.00;;;;;;5013889;28;20682;-89
2021/06/04 00:13:55;;;;;;;6.78;4.95;;;15.30;63.70;;;;;;5016561;28;20608;-90
2021/06/04 00:16:26;;;;;;;5.55;4.32;;;15.30;65.30;;;;;;5007770;28;20200;-89
2021/06/04 00:18:54;;;;;;;5.60;4.43;;;15.30;66.20;;;;;;5016747;28;20207;-89
2021/06/04 00:21:24;;;;;;;5.18;4.32;;;15.30;66.30;;;;;;5014993;28;20227;-89
2021/06/04 00:23:58;;;;;;;4.93;4.40;;;15.30;67.20;;;;;;5018087;28;20641;-90
2021/06/04 00:26:25;;;;;;;5.97;4.32;;;15.30;67.80;;;;;;5016029;28;20203;-89
2021/06/04 00:28:52;;;;;;;8.43;4.70;;;15.30;69.00;;;;;;5012137;28;20207;-89
2021/06/04 00:31:20;;;;;;;10.75;4.80;;;15.30;70.30;;;;;;5021003;28;20203;-89
2021/06/04 00:33:46;;;;;;;7.75;4.82;;;15.20;70.80;;;;;;5014689;28;20559;-89
2021/06/04 00:36:14;;;;;;;5.22;4.30;;;15.20;71.10;;;;;;5022594;28;20248;-88
2021/06/04 00:38:41;;;;;;;6.18;4.05;;;15.10;72.00;;;;;;5012338;28;20206;-89
2021/06/04 00:41:12;;;;;;;4.57;4.05;;;15.00;73.00;;;;;;5017388;28;20230;-90
2021/06/04 00:43:39;;;;;;;5.20;4.25;;;15.00;74.30;;;;;;5022225;28;20268;-89
2021/06/04 00:46:07;;;;;;;5.25;4.30;;;15.00;74.30;;;;;;5026727;28;20204;-89
2021/06/04 00:48:35;;;;;;;9.65;4.22;;;15.00;75.10;;;;;;5017541;28;20597;-89
2021/06/04 00:51:06;;;;;;;5.78;4.28;;;15.00;75.40;;;;;;5014125;28;20219;-89
2021/06/04 00:53:35;;;;;;;7.57;4.40;;;14.90;76.70;;;;;;5022108;28;20254;-90
2021/06/04 00:56:02;;;;;;;5.15;4.60;;;14.90;78.10;;;;;;5021958;28;20220;-90
2021/06/04 00:58:32;;;;;;;5.05;4.55;;;14.90;77.20;;;;;;5018558;28;20326;-89
2021/06/04 01:01:00;;;;;;;6.50;4.05;;;14.90;77.20;;;;;;5022015;28;20234;-89
2021/06/04 01:03:29;;;;;;;5.63;4.10;;;14.90;77.20;;;;;;5021449;28;20438;-90
2021/06/04 01:06:10;;;;;;;8.45;4.72;;;14.80;77.10;;;;;;5026628;28;20225;-88
2021/06/04 01:08:53;;;;;;;5.65;4.47;;;14.80;77.10;;;;;;5025180;28;20309;-92
2021/06/04 01:11:30;;;;;;;5.82;4.28;;;14.80;78.20;;;;;;5014758;28;20262;-89
2021/06/04 01:14:08;;;;;;;5.25;4.38;;;14.70;78.80;;;;;;5033199;28;20205;-89
2021/06/04 01:16:41;;;;;;;6.13;4.30;;;14.70;79.30;;;;;;5025302;28;20203;-90
2021/06/04 01:19:43;;;;;;;5.40;4.10;;;14.60;79.90;;;;;;5026153;28;20286;-88
2021/06/04 01:22:16;;;;;;;5.80;4.32;;;14.60;80.70;;;;;;5000389;28;20215;-88
2021/06/04 01:25:10;;;;;;;4.90;4.28;;;14.50;80.60;;;;;;5026600;28;20231;-89
2021/06/04 01:27:41;;;;;;;8.20;4.78;;;14.40;80.50;;;;;;5020965;28;20222;-89
2021/06/04 01:30:20;;;;;;;5.05;4.40;;;14.40;81.10;;;;;;5019450;28;20253;-88
2021/06/04 01:32:48;;;;;;;5.70;4.32;;;14.40;81.60;;;;;;5027777;28;20260;-89
2021/06/04 01:35:25;;;;;;;5.20;4.70;;;14.40;81.60;;;;;;5019899;28;20219;-89
2021/06/04 01:37:53;;;;;;;8.27;4.20;;;14.30;81.70;;;;;;5029002;28;20233;-89
2021/06/04 01:40:24;;;;;;;5.95;4.25;;;14.30;80.60;;;;;;5028415;28;20211;-89
2021/06/04 01:42:55;;;;;;;5.25;4.35;;;14.20;79.90;;;;;;5027254;28;20227;-89
2021/06/04 01:45:25;;;;;;;4.80;4.35;;;14.20;79.90;;;;;;5017689;28;20310;-90
2021/06/04 01:47:57;;;;;;;6.22;4.30;;;14.20;80.40;;;;;;5021905;28;20207;-88
2021/06/04 01:50:29;;;;;;;4.57;4.13;;;14.30;80.70;;;;;;5027500;28;20294;-89
2021/06/04 01:52:59;;;;;;;5.32;4.50;;;14.40;80.80;;;;;;5028935;28;20203;-89
2021/06/04 01:55:29;;;;;;;4.60;4.20;;;14.30;80.50;;;;;;5029134;28;20229;-89
2021/06/04 01:58:00;;;;;;;5.47;4.50;;;14.30;80.80;;;;;;5028946;28;20223;-89
2021/06/04 02:00:32;;;;;;;4.43;4.03;;;14.30;81.20;;;;;;5029712;28;20242;-89
2021/06/04 02:02:59;;;;;;;5.00;4.47;;;14.20;80.80;;;;;;5029682;28;20302;-89
2021/06/04 02:05:31;;;;;;;4.30;3.90;;;14.20;80.00;;;;;;5011022;28;20231;-89
2021/06/04 02:07:57;;;;;;;5.18;4.32;;;14.20;80.10;;;;;;5029585;28;20203;-89
2021/06/04 02:10:30;;;;;;;5.18;4.13;;;14.10;79.70;;;;;;5007292;28;20727;-89
2021/06/04 02:13:01;;;;;;;5.25;4.30;;;14.00;79.90;;;;;;5005342;28;20218;-89
2021/06/04 02:15:32;;;;;;;8.50;3.75;;;13.90;80.10;;;;;;5030977;28;20303;-88
2021/06/04 02:18:07;;;;;;;4.38;3.97;;;13.80;80.60;;;;;;5015411;28;20195;-88
2021/06/04 02:20:37;;;;;;;6.22;4.07;;;13.80;81.40;;;;;;5001872;28;20223;-90
2021/06/04 02:26:40;;;;;;;4.57;4.13;;;13.70;82.70;;;;;;5033069;28;20238;-90
2021/06/04 05:00:29;;;;;;;4.65;4.25;;;13.60;86.10;;;;;;4982036;28;20264;-89
2021/06/04 05:02:57;;;;;;;4.72;4.32;;;13.60;86.80;;;;;;4977867;28;20256;-89
2021/06/04 05:05:27;;;;;;;9.30;4.75;;;13.70;86.80;;;;;;4993756;28;20830;-89
2021/06/04 05:07:53;;;;;;;5.15;4.65;;;13.70;86.00;;;;;;4995273;28;20227;-90
2021/06/04 05:10:19;;;;;;;6.68;4.60;;;13.80;85.20;;;;;;4984529;28;20232;-89
2021/06/04 05:12:46;;;;;;;5.28;4.63;;;13.90;84.40;;;;;;4995848;28;20200;-91
2021/06/04 05:15:15;;;;;;;4.88;4.20;;;14.10;84.00;;;;;;4998192;28;20241;-90
2021/06/04 05:17:43;;;;;;;10.18;4.40;;;14.40;83.40;;;;;;5001838;28;20235;-90
2021/06/04 05:20:12;;;;;;;5.97;4.15;;;14.60;83.00;;;;;;4998153;28;20224;-89
2021/06/04 05:22:39;;;;;;;6.88;4.47;;;14.80;82.30;;;;;;4988961;28;20259;-91
2021/06/04 05:25:08;;;;;;;6.40;4.30;;;15.10;81.60;;;;;;4982526;28;20230;-92
2021/06/04 05:27:34;;;;;;;8.80;4.47;;;15.30;81.10;;;;;;4984623;28;20207;-93
2021/06/04 05:30:01;;;;;;;8.02;4.13;;;15.40;82.40;;;;;;4983146;28;20594;-91
2021/06/04 05:32:27;;;;;;;6.07;4.35;;;15.80;81.70;;;;;;4979159;28;20204;-91
2021/06/04 05:34:55;;;;;;;6.97;4.03;;;16.00;78.00;;;;;;4980261;28;20231;-90
2021/06/04 05:37:22;;;;;;;5.57;3.97;;;16.30;76.00;;;;;;4977630;28;20647;-90
2021/06/04 05:39:48;;;;;;;4.20;3.80;;;16.50;76.20;;;;;;4979052;28;20224;-91
2021/06/04 05:42:14;;;;;;;4.70;4.22;;;16.70;73.60;;;;;;4984878;28;20312;-89
2021/06/04 05:44:42;;;;;;;8.52;4.18;;;16.80;71.20;;;;;;4986145;28;20618;-92
2021/06/04 05:47:13;;;;;;;4.95;4.05;;;16.90;71.50;;;;;;4998334;28;20196;-91
2021/06/04 05:49:40;;;;;;;5.45;4.05;;;17.10;71.80;;;;;;4999009;28;20278;-90
2021/06/04 05:52:10;;;;;;;6.45;4.15;;;17.30;71.00;;;;;;4983068;28;20217;-93
2021/06/04 05:54:39;;;;;;;6.43;3.97;;;17.40;72.90;;;;;;5000421;28;20239;-90
2021/06/04 05:57:06;;;;;;;6.70;3.88;;;17.50;68.70;;;;;;4993734;28;20207;-91
2021/06/04 05:59:32;;;;;;;5.18;4.20;;;17.80;69.50;;;;;;4984927;28;20224;-91
2021/06/04 06:01:59;;;;;;;6.68;4.00;;;18.10;65.80;;;;;;4991555;28;20680;-91
2021/06/04 06:04:26;;;;;;;6.32;4.10;;;18.30;64.40;;;;;;4975736;28;20232;-91
2021/06/04 06:06:53;;;;;;;4.50;4.00;;;18.40;66.10;;;;;;4986793;28;20290;-91
2021/06/04 06:09:21;;;;;;;5.50;3.95;;;18.70;66.30;;;;;;4987530;28;20364;-91
2021/06/04 06:11:48;;;;;;;4.20;3.85;;;18.90;64.30;;;;;;4968427;28;20278;-92
2021/06/04 06:14:15;;;;;;;7.85;4.13;;;19.10;62.90;;;;;;4983289;28;20228;-87
2021/06/04 06:16:42;;;;;;;6.35;4.57;;;19.20;60.90;;;;;;4994874;28;20223;-90
2021/06/04 06:19:11;;;;;;;5.07;4.57;;;19.30;58.90;;;;;;4997075;28;20243;-89
2021/06/04 06:21:40;;;;;;;6.68;5.00;;;19.30;58.30;;;;;;5008654;28;20231;-88
2021/06/04 06:24:07;;;;;;;10.35;5.15;;;19.20;55.20;;;;;;4984664;28;20251;-93
2021/06/04 06:26:35;;;;;;;6.22;5.00;;;18.80;57.90;;;;;;5001110;28;20196;-88
2021/06/04 06:29:04;;;;;;;7.65;4.85;;;18.40;60.30;;;;;;5004885;28;20222;-88
2021/06/04 06:31:33;;;;;;;10.10;4.82;;;18.40;60.70;;;;;;4995571;28;20211;-88
2021/06/04 06:34:00;;;;;;;9.73;5.10;;;18.80;59.70;;;;;;4996916;28;20222;-88
2021/06/04 06:36:30;;;;;;;9.10;5.30;;;19.20;57.50;;;;;;4998200;28;20263;-88
2021/06/04 06:38:57;;;;;;;12.98;5.30;;;19.50;55.40;;;;;;4983049;28;20200;-88
2021/06/04 06:41:26;;;;;;;5.10;4.60;;;19.70;55.60;;;;;;4980723;28;20622;-89
2021/06/04 06:43:54;;;;;;;8.70;5.47;;;20.00;57.30;;;;;;4975328;28;20212;-88
2021/06/04 06:46:24;;;;;;;13.38;5.22;;;20.40;56.20;;;;;;4986827;28;20232;-88
2021/06/04 06:48:51;;;;;;;10.63;5.05;;;20.40;52.70;;;;;;4973798;28;20200;-88
2021/06/04 06:51:18;;;;;;;7.15;4.60;;;20.60;54.60;;;;;;4984743;28;20219;-88
2021/06/04 06:53:45;;;;;;;10.48;4.68;;;20.40;54.20;;;;;;4971279;28;20311;-89
2021/06/04 06:56:15;;;;;;;5.93;4.43;;;20.70;52.20;;;;;;4984418;28;20200;-89
2021/06/04 06:58:42;;;;;;;6.65;4.70;;;20.90;51.60;;;;;;4982055;28;20236;-87
2021/06/04 07:01:10;;;;;;;5.55;4.50;;;21.20;50.80;;;;;;4998912;28;20234;-86
2021/06/04 07:03:39;;;;;;;6.60;4.60;;;21.60;48.30;;;;;;4987440;28;20204;-89
2021/06/04 07:06:08;;;;;;;4.32;3.83;;;22.00;48.90;;;;;;4983927;28;20308;-87
2021/06/04 07:08:35;;;;;;;4.90;4.10;;;22.10;48.70;;;;;;4987873;28;20660;-88
2021/06/04 07:11:02;;;;;;;5.93;4.15;;;21.90;49.20;;;;;;4979251;28;20225;-87
2021/06/04 07:13:29;;;;;;;6.60;4.22;;;22.00;48.40;;;;;;4982405;28;20208;-87
2021/06/04 07:15:58;;;;;;;7.25;4.15;;;22.30;48.40;;;;;;4975139;28;20247;-87
2021/06/04 07:18:27;;;;;;;5.50;3.88;;;22.50;46.50;;;;;;4986743;28;20486;-86
2021/06/04 07:20:53;;;;;;;6.40;4.00;;;22.80;46.10;;;;;;4973130;28;20232;-89
2021/06/04 07:23:21;;;;;;;9.65;4.40;;;23.20;45.60;;;;;;4986645;28;20251;-87
2021/06/04 07:25:48;;;;;;;4.55;4.13;;;23.30;45.70;;;;;;4976156;28;20237;-87
2021/06/04 07:28:16;;;;;;;5.97;3.90;;;23.60;44.00;;;;;;4989011;28;20657;-87
2021/06/04 07:30:45;;;;;;;7.22;4.15;;;23.70;43.20;;;;;;4980675;28;20718;-88
2021/06/04 07:33:14;;;;;;;10.77;4.50;;;23.90;43.40;;;;;;4979295;28;20207;-84
2021/06/04 07:35:42;;;;;;;4.85;4.00;;;24.00;43.40;;;;;;4979411;28;20733;-85
2021/06/04 07:38:09;;;;;;;5.82;3.95;;;24.20;42.20;;;;;;4989148;28;20235;-85
2021/06/04 07:40:37;;;;;;;7.15;4.53;;;24.40;43.50;;;;;;4982660;28;20231;-85
2021/06/04 07:43:06;;;;;;;7.35;4.30;;;24.60;41.50;;;;;;4986311;28;20287;-85
2021/06/04 07:45:36;;;;;;;6.80;4.85;;;24.90;40.80;;;;;;4990421;28;20743;-84
2021/06/04 07:48:03;;;;;;;8.25;5.03;;;24.70;39.70;;;;;;4981343;28;20208;-85
2021/06/04 07:50:29;;;;;;;5.88;4.18;;;24.90;39.60;;;;;;4996637;28;20307;-86
2021/06/04 07:52:57;;;;;;;6.13;4.03;;;25.10;40.40;;;;;;4990592;28;20537;-85
2021/06/04 07:55:25;;;;;;;4.30;3.83;;;25.60;38.80;;;;;;4984385;28;20238;-87
2021/06/04 07:57:51;;;;;;;5.85;4.03;;;26.00;36.80;;;;;;4978646;28;20205;-87
2021/06/04 08:00:21;;;;;;;5.35;3.70;;;26.10;37.00;;;;;;4992114;28;20278;-87
2021/06/04 08:02:48;;;;;;;4.55;3.88;;;26.20;37.00;;;;;;4996977;28;20218;-87
2021/06/04 08:05:15;;;;;;;4.90;3.67;;;26.50;37.20;;;;;;4992819;28;20230;-87
2021/06/04 08:07:42;;;;;;;7.78;4.68;;;26.70;36.20;;;;;;4981478;28;20216;-88
2021/06/04 08:10:12;;;;;;;5.10;3.63;;;26.50;36.40;;;;;;4989185;28;20242;-88
2021/06/04 08:12:38;;;;;;;4.57;3.67;;;27.00;35.70;;;;;;5000156;28;20222;-88
2021/06/04 08:15:10;;;;;;;5.63;4.15;;;27.50;34.30;;;;;;4997761;28;20306;-87
2021/06/04 08:17:42;;;;;;;3.60;3.30;;;27.70;34.40;;;;;;5001250;28;20306;-88
2021/06/04 08:20:11;;;;;;;6.32;3.83;;;28.00;33.60;;;;;;4974835;28;20225;-87
2021/06/04 08:22:41;;;;;;;4.45;4.05;;;28.70;30.90;;;;;;4985669;28;20224;-86
2021/06/04 08:25:10;;;;;;;4.05;3.70;;;29.40;28.30;;;;;;4976494;28;20223;-86
2021/06/04 08:27:37;;;;;;;4.97;4.10;;;29.80;28.40;;;;;;4994392;28;20200;-87
2021/06/04 08:30:04;;;;;;;5.00;4.20;;;29.90;28.30;;;;;;4992985;28;20263;-87
2021/06/04 08:32:32;;;;;;;4.18;3.75;;;30.00;27.60;;;;;;4987838;28;20200;-86
2021/06/04 08:34:59;;;;;;;5.57;4.35;;;30.00;27.60;;;;;;4973399;28;20501;-87
2021/06/04 08:37:25;;;;;;;7.65;4.38;;;29.90;28.30;;;;;;4998432;28;20199;-87
2021/06/04 08:39:52;;;;;;;4.82;4.20;;;29.90;28.40;;;;;;4992112;28;20216;-87
2021/06/04 08:46:00;;;;;;;4.20;3.80;;;30.80;26.10;;;;;;4981481;28;20234;-90
2021/06/04 08:48:38;;;;;;;5.50;3.70;;;30.80;25.20;;;;;;4992156;28;20285;-88
2021/06/04 08:51:15;;;;;;;4.20;3.80;;;30.90;25.30;;;;;;4974787;28;20227;-89
2021/06/04 08:53:53;;;;;;;4.38;3.50;;;31.90;23.70;;;;;;4986565;28;20553;-88
2021/06/04 08:56:26;;;;;;;5.10;3.80;;;32.70;22.90;;;;;;4981513;28;20211;-89
2021/06/04 08:58:56;;;;;;;5.00;4.50;;;32.70;23.10;;;;;;4988203;28;20215;-88
2021/06/04 09:01:29;;;;;;;4.60;4.15;;;32.10;22.80;;;;;;4982248;28;20298;-87
2021/06/04 09:04:01;;;;;;;4.78;4.40;;;32.30;22.50;;;;;;4988323;28;20232;-87
2021/06/04 09:06:33;;;;;;;6.03;4.40;;;32.40;23.50;;;;;;4988899;28;20235;-86
2021/06/04 09:09:08;;;;;;;4.25;3.85;;;32.70;22.60;;;;;;4984852;28;20215;-88
2021/06/04 09:11:38;;;;;;;5.05;4.55;;;32.70;21.00;;;;;;4983032;28;20203;-87
2021/06/04 09:14:06;;;;;;;7.65;4.50;;;32.80;21.30;;;;;;4989190;28;20683;-88
2021/06/04 09:16:44;;;;;;;4.97;4.35;;;32.60;23.00;;;;;;4989751;28;20208;-88
2021/06/04 09:19:20;;;;;;;8.88;4.40;;;32.80;21.20;;;;;;4977589;28;20238;-86
2021/06/04 09:21:47;;;;;;;7.78;4.40;;;32.90;22.20;;;;;;4983124;28;20314;-87
2021/06/04 09:24:19;;;;;;;8.40;4.68;;;33.00;21.60;;;;;;4976634;28;20679;-87
2021/06/04 09:26:45;;;;;;;5.57;4.93;;;32.80;21.90;;;;;;4982675;28;20742;-87
2021/06/04 09:29:16;;;;;;;5.13;4.10;;;32.60;20.80;;;;;;4982183;28;20227;-87
2021/06/04 09:31:46;;;;;;;5.85;4.57;;;32.80;21.00;;;;;;4979561;28;20207;-88
2021/06/04 09:34:19;;;;;;;9.52;4.80;;;33.20;20.70;;;;;;4982925;28;20227;-86
2021/06/04 09:36:49;;;;;;;4.68;4.07;;;33.60;20.00;;;;;;4970712;28;20656;-87
2021/06/04 09:39:27;;;;;;;5.00;4.45;;;34.50;18.90;;;;;;4985161;28;20227;-87
2021/06/04 09:42:04;;;;;;;5.00;4.50;;;34.60;18.90;;;;;;4978736;28;20230;-87
2021/06/04 09:44:31;;;;;;;6.25;4.50;;;34.90;19.00;;;;;;4973383;28;20691;-90
2021/06/04 09:47:12;;;;;;;7.07;4.95;;;34.40;18.80;;;;;;4980276;28;20671;-87
2021/06/04 09:49:47;;;;;;;6.03;4.80;;;34.40;18.80;;;;;;4980331;28;20231;-87
2021/06/04 09:52:26;;;;;;;8.65;4.20;;;33.70;18.50;;;;;;4960879;28;20687;-87
2021/06/04 09:55:11;;;;;;;4.90;4.50;;;33.70;18.50;;;;;;4961517;28;20688;-86
2021/06/04 09:57:54;;;;;;;4.53;4.13;;;33.80;18.70;;;;;;4979620;28;20532;-87
2021/06/04 10:00:26;;;;;;;4.80;4.35;;;33.20;20.40;;;;;;4973441;28;20223;-86
2021/06/04 10:03:07;;;;;;;4.43;3.78;;;32.60;19.50;;;;;;4981917;28;20223;-87
2021/06/04 10:05:35;;;;;;;4.85;3.70;;;31.40;23.70;;;;;;4977728;28;20224;-86
2021/06/04 10:08:04;;;;;;;6.97;4.38;;;31.90;24.00;;;;;;4974275;28;20667;-87
2021/06/04 10:10:33;;;;;;;7.82;4.32;;;32.00;22.20;;;;;;4980360;28;20227;-87
2021/06/04 10:13:02;;;;;;;4.75;4.03;;;31.70;23.30;;;;;;4978834;28;20652;-86
2021/06/04 10:15:37;;;;;;;4.03;3.70;;;32.00;24.90;;;;;;4982058;28;20600;-86
2021/06/04 10:18:33;;;;;;;5.35;4.20;;;32.50;22.20;;;;;;4970890;28;20203;-86
2021/06/04 10:21:14;;;;;;;4.55;4.10;;;33.10;22.10;;;;;;4960740;28;20283;-86
2021/06/04 10:23:44;;;;;;;5.60;4.00;;;33.70;20.00;;;;;;4974542;28;20228;-87
2021/06/04 10:26:24;;;;;;;7.82;4.28;;;34.40;18.80;;;;;;4973762;28;20739;-87
2021/06/04 10:28:53;;;;;;;5.22;4.30;;;34.60;17.10;;;;;;4975794;28;20211;-87
2021/06/04 10:31:49;;;;;;;4.82;4.10;;;34.30;18.80;;;;;;4985996;28;20286;-86
2021/06/04 10:34:29;;;;;;;6.10;4.15;;;34.30;18.10;;;;;;4982735;28;20238;-87
2021/06/04 10:36:59;;;;;;;4.65;4.22;;;34.00;18.60;;;;;;4975988;28;20207;-87
2021/06/04 10:39:31;;;;;;;5.68;4.13;;;33.30;18.30;;;;;;4978461;28;20228;-88
2021/06/04 10:42:05;;;;;;;8.05;4.30;;;33.30;18.30;;;;;;4977579;28;20219;-87
2021/06/04 10:44:41;;;;;;;4.53;4.10;;;33.30;18.30;;;;;;4979906;28;20222;-88
2021/06/04 10:47:22;;;;;;;4.65;4.25;;;33.30;18.30;;;;;;4969553;28;20610;-89
2021/06/04 10:50:06;;;;;;;5.68;4.15;;;34.10;18.70;;;;;;4977344;28;20691;-88
2021/06/04 10:52:52;;;;;;;4.60;4.20;;;34.50;17.00;;;;;;4960540;28;20208;-87
2021/06/04 10:55:25;;;;;;;4.95;4.00;;;34.90;15.90;;;;;;4980532;28;20591;-88
2021/06/04 10:57:59;;;;;;;4.75;4.32;;;35.00;19.10;;;;;;4971045;28;20203;-87
2021/06/04 11:00:31;;;;;;;4.60;4.30;;;35.00;15.90;;;;;;4971671;28;20236;-89
2021/06/04 11:03:08;;;;;;;4.72;4.18;;;34.40;17.00;;;;;;4991496;28;20543;-87
2021/06/04 11:05:45;;;;;;;4.22;3.92;;;33.80;18.50;;;;;;4980647;28;20236;-89
2021/06/04 11:08:23;;;;;;;4.00;3.70;;;33.40;18.30;;;;;;4988038;28;20200;-88
2021/06/04 11:10:59;;;;;;;4.30;3.90;;;32.80;18.70;;;;;;4992138;28;20268;-88
2021/06/04 11:13:38;;;;;;;3.88;3.55;;;32.40;20.70;;;;;;4976602;28;20271;-86
2021/06/04 11:16:14;;;;;;;5.88;3.80;;;32.30;22.10;;;;;;4984211;28;20229;-86
2021/06/04 11:18:43;;;;;;;3.97;3.58;;;32.00;17.60;;;;;;4990629;28;20336;-89
2021/06/04 11:21:21;;;;;;;4.72;3.70;;;30.80;19.60;;;;;;4992155;28;20240;-87
2021/06/04 11:23:52;;;;;;;4.57;4.18;;;30.60;19.90;;;;;;4986285;28;20486;-86
2021/06/04 11:26:26;;;;;;;8.05;3.58;;;30.50;20.00;;;;;;4989162;28;20196;-86
2021/06/04 11:28:58;;;;;;;4.45;3.65;;;30.20;20.30;;;;;;4984572;28;20201;-87
2021/06/04 11:31:36;;;;;;;5.32;3.78;;;29.80;20.40;;;;;;4978713;28;20671;-86
2021/06/04 11:34:07;;;;;;;5.43;3.45;;;29.50;22.30;;;;;;4982188;28;20558;-86
2021/06/04 11:36:41;;;;;;;4.97;3.50;;;29.60;21.90;;;;;;4979623;28;20215;-89
2021/06/04 11:39:15;;;;;;;5.15;3.40;;;29.30;21.80;;;;;;4967348;28;20223;-90
2021/06/04 11:41:47;;;;;;;3.63;3.33;;;29.50;23.30;;;;;;4979816;28;20218;-90
2021/06/04 11:44:26;;;;;;;4.65;3.22;;;29.60;23.40;;;;;;4977556;28;20228;-89
2021/06/04 11:47:40;;;;;;;4.50;3.30;;;29.90;20.30;;;;;;4981273;28;20295;-88
2021/06/04 11:50:12;;;;;;;3.63;3.33;;;29.50;20.70;;;;;;4977106;28;20228;-89
2021/06/04 11:52:45;;;;;;;3.50;3.20;;;29.20;23.10;;;;;;4979410;28;20211;-88
2021/06/04 11:55:19;;;;;;;3.75;3.33;;;29.00;24.50;;;;;;4977157;28;20235;-89
2021/06/04 11:57:49;;;;;;;3.80;3.50;;;29.30;25.60;;;;;;4972094;28;20203;-89
2021/06/04 12:00:36;;;;;;;7.70;3.50;;;29.70;24.60;;;;;;4988191;28;20227;-89
2021/06/04 12:03:35;;;;;;;6.90;4.10;;;30.20;23.70;;;;;;4982457;28;20627;-87
2021/06/04 12:06:31;;;;;;;4.93;4.00;;;29.90;21.40;;;;;;4941016;29;20233;-89
2021/06/04 12:08:59;;;;;;;5.55;4.15;;;29.90;23.50;;;;;;4994275;28;20229;-88
2021/06/04 12:11:33;;;;;;;4.68;3.80;;;29.70;24.40;;;;;;4993896;28;20676;-88
2021/06/04 12:14:21;;;;;;;6.95;4.15;;;29.80;25.00;;;;;;4981558;28;20208;-88
2021/06/04 12:17:16;;;;;;;5.60;4.00;;;29.60;23.50;;;;;;4979663;28;20545;-86
2021/06/04 12:19:43;;;;;;;4.40;4.00;;;29.00;24.80;;;;;;4990114;28;20718;-87
2021/06/04 12:22:33;;;;;;;5.55;4.22;;;29.00;23.80;;;;;;4991877;28;20314;-87
2021/06/04 12:25:03;;;;;;;4.13;3.65;;;28.80;24.10;;;;;;4988085;28;20277;-87
2021/06/04 12:28:06;;;;;;;7.47;4.10;;;28.50;26.70;;;;;;4993707;28;20291;-86
2021/06/04 12:30:58;;;;;;;5.40;3.85;;;28.00;27.30;;;;;;4980548;28;20632;-87
2021/06/04 12:33:56;;;;;;;4.38;3.58;;;27.70;26.50;;;;;;4990217;28;20203;-88
2021/06/04 12:37:09;;;;;;;4.30;3.90;;;27.60;26.10;;;;;;4980617;28;20216;-88
2021/06/04 12:40:01;;;;;;;4.20;3.80;;;27.80;28.00;;;;;;4974433;28;20240;-88
2021/06/04 12:42:35;;;;;;;6.07;4.10;;;28.00;26.40;;;;;;4965401;28;20274;-89
2021/06/04 12:45:09;;;;;;;7.28;4.22;;;28.30;26.50;;;;;;4994611;28;20223;-87
2021/06/04 12:47:44;;;;;;;4.60;4.07;;;28.50;25.60;;;;;;4987742;28;20200;-87
2021/06/04 12:50:19;;;;;;;4.00;3.60;;;28.30;26.60;;;;;;4975006;28;20250;-89
2021/06/04 12:52:45;;;;;;;4.57;3.90;;;28.10;26.70;;;;;;4995043;28;20667;-88
2021/06/04 12:55:19;;;;;;;4.93;3.72;;;27.80;26.20;;;;;;4977740;28;20224;-88
2021/06/04 12:57:49;;;;;;;8.57;4.72;;;27.60;28.40;;;;;;4983779;28;20231;-90
2021/06/04 13:00:24;;;;;;;4.88;3.97;;;27.40;29.40;;;;;;4975463;28;20560;-87
2021/06/04 13:02:55;;;;;;;4.93;4.30;;;27.30;29.30;;;;;;4990527;28;20695;-87
2021/06/04 13:05:26;;;;;;;5.65;4.85;;;27.40;28.60;;;;;;4978032;28;20227;-88
2021/06/04 13:07:55;;;;;;;7.82;4.30;;;27.50;28.70;;;;;;4980187;28;20203;-88
2021/06/04 13:10:24;;;;;;;5.32;4.55;;;27.40;29.40;;;;;;4984485;28;20279;-88
2021/06/04 13:12:56;;;;;;;5.43;4.50;;;27.40;30.00;;;;;;4984458;28;20234;-87
2021/06/04 13:15:26;;;;;;;6.35;4.82;;;27.40;29.90;;;;;;4984431;28;20658;-89
2021/06/04 13:18:00;;;;;;;7.30;4.82;;;27.20;29.20;;;;;;4981539;28;20656;-86
2021/06/04 13:20:29;;;;;;;6.40;4.15;;;27.20;30.60;;;;;;4977427;28;20227;-87
2021/06/04 13:23:09;;;;;;;8.88;4.47;;;27.40;30.40;;;;;;4981805;28;20231;-88
2021/06/04 13:25:36;;;;;;;5.57;4.32;;;27.70;29.00;;;;;;4989385;28;20230;-89
2021/06/04 13:28:11;;;;;;;6.10;4.68;;;27.90;28.80;;;;;;4984099;28;20206;-89
2021/06/04 13:30:40;;;;;;;7.00;3.92;;;27.90;27.70;;;;;;4969842;28;20331;-89
2021/06/04 13:33:14;;;;;;;10.73;4.40;;;28.00;28.60;;;;;;4977629;28;20196;-88
2021/06/04 13:35:47;;;;;;;10.63;4.95;;;28.20;28.70;;;;;;4983739;28;20220;-89
2021/06/04 13:38:26;;;;;;;7.15;5.05;;;28.10;28.20;;;;;;4985040;28;20210;-89
2021/06/04 13:41:00;;;;;;;8.10;4.85;;;28.10;27.30;;;;;;4974598;28;20223;-88
2021/06/04 13:43:35;;;;;;;4.55;4.00;;;28.00;28.80;;;;;;4966544;28;20252;-88
2021/06/04 13:46:03;;;;;;;11.13;4.97;;;28.10;28.70;;;;;;4988541;28;20224;-87
2021/06/04 13:48:33;;;;;;;5.97;4.40;;;28.00;28.10;;;;;;4982958;28;20556;-88
2021/06/04 13:51:03;;;;;;;9.07;4.63;;;28.00;28.00;;;;;;4987543;28;20604;-87
2021/06/04 13:53:55;;;;;;;7.78;4.13;;;28.00;28.60;;;;;;4979381;28;20219;-88
2021/06/04 13:56:26;;;;;;;8.75;4.43;;;28.10;27.60;;;;;;4969647;28;20216;-88
2021/06/04 13:59:27;;;;;;;6.38;4.22;;;28.00;27.50;;;;;;4988695;28;20212;-88
2021/06/04 14:02:10;;;;;;;5.22;4.43;;;27.70;29.00;;;;;;4964037;28;20290;-85
2021/06/04 14:04:40;;;;;;;4.63;4.00;;;27.50;29.00;;;;;;4971909;28;20671;-87
2021/06/04 14:07:11;;;;;;;5.18;4.40;;;27.20;29.00;;;;;;4969334;28;20204;-87
2021/06/04 14:09:37;;;;;;;7.93;3.78;;;27.20;30.40;;;;;;4981704;28;20226;-88
2021/06/04 14:12:24;;;;;;;6.95;4.05;;;27.10;29.30;;;;;;4978374;28;20204;-85
2021/06/04 14:14:55;;;;;;;6.07;3.88;;;27.00;29.60;;;;;;4969811;28;20235;-86
2021/06/04 14:17:35;;;;;;;5.75;3.67;;;26.70;29.50;;;;;;4980253;28;20197;-85
2021/06/04 14:20:05;;;;;;;7.03;4.40;;;26.50;29.70;;;;;;4985017;28;20227;-85
2021/06/04 14:22:36;;;;;;;5.82;3.58;;;26.10;31.20;;;;;;4983957;28;20224;-87
2021/06/04 14:25:05;;;;;;;15.82;3.67;;;25.90;34.10;;;;;;4997657;28;20286;-86
2021/06/04 14:27:43;;;;;;;9.68;3.17;;;25.40;36.40;;;;;;4992058;28;20203;-88
2021/06/04 14:30:23;;;;;;;11.95;2.80;;;24.80;36.70;;;;;;4994746;28;20243;-90
2021/06/04 14:33:02;;;;;;;9.32;3.00;;;24.40;38.20;;;;;;4985815;28;20208;-87
2021/06/04 14:35:41;;;;;;;13.50;2.92;;;24.20;39.30;;;;;;4995765;28;20310;-87
2021/06/04 14:38:23;;;;;;;6.38;2.60;;;24.10;39.90;;;;;;5000074;28;20214;-88
2021/06/04 14:40:50;;;;;;;7.25;2.45;;;24.00;40.40;;;;;;4989368;28;20223;-90
2021/06/04 14:43:17;;;;;;;9.23;2.20;;;23.80;39.70;;;;;;4985428;28;20715;-89
2021/06/04 14:45:44;;;;;;;5.00;2.30;;;23.70;41.20;;;;;;4991977;28;20246;-90
2021/06/04 14:48:15;;;;;;;8.52;2.60;;;23.50;41.50;;;;;;4989742;28;20211;-90
2021/06/04 14:50:42;;;;;;;6.60;2.30;;;23.30;40.90;;;;;;4985201;28;20230;-89
2021/06/04 14:53:09;;;;;;;5.25;2.45;;;23.30;42.30;;;;;;4985669;28;20227;-90
2021/06/04 14:55:35;;;;;;;7.22;2.42;;;23.20;44.50;;;;;;4985472;28;20279;-90
2021/06/04 14:58:03;;;;;;;8.32;2.65;;;22.90;44.70;;;;;;4980333;28;20273;-89
2021/06/04 15:00:30;;;;;;;5.90;2.25;;;22.90;46.40;;;;;;4994598;28;20223;-89
2021/06/04 15:02:58;;;;;;;6.55;2.33;;;22.80;48.60;;;;;;4986162;28;20692;-89
2021/06/04 15:05:28;;;;;;;6.18;2.30;;;22.70;48.90;;;;;;4991394;28;20618;-90
2021/06/04 15:07:55;;;;;;;4.03;2.30;;;22.70;49.50;;;;;;4979469;28;20551;-89
2021/06/04 15:10:22;;;;;;;11.30;2.35;;;22.50;49.60;;;;;;4983258;28;20220;-89
2021/06/04 15:12:49;;;;;;;9.55;2.60;;;22.50;49.40;;;;;;4982089;28;20327;-90
2021/06/04 15:15:19;;;;;;;5.63;2.30;;;22.30;50.10;;;;;;4985245;28;20224;-88
2021/06/04 15:17:49;;;;;;;5.00;2.28;;;22.30;51.50;;;;;;4984165;28;20200;-90
2021/06/04 15:20:17;;;;;;;5.72;2.45;;;22.20;48.40;;;;;;4981427;28;20244;-90
2021/06/04 15:22:43;;;;;;;7.47;2.25;;;22.10;52.10;;;;;;4986005;28;20216;-89
2021/06/04 15:25:11;;;;;;;4.30;2.20;;;21.90;54.90;;;;;;4987275;28;20227;-89
2021/06/04 15:27:38;;;;;;;4.60;2.40;;;21.80;55.10;;;;;;5006289;28;20607;-89
2021/06/04 15:30:06;;;;;;;4.50;2.30;;;21.60;57.40;;;;;;5001205;28;20601;-90
2021/06/04 15:32:33;;;;;;;6.47;3.30;;;21.40;64.00;;;;;;4990188;28;20207;-88
2021/06/04 15:34:59;;;;;;;7.38;3.05;;;21.10;70.30;;;;;;4983378;28;20238;-89
2021/06/04 15:37:27;;;;;;;4.75;2.78;;;20.90;75.80;;;;;;4996435;28;20676;-90
2021/06/04 15:39:54;;;;;;;4.13;3.00;;;20.50;80.60;;;;;;4986063;28;20251;-89
2021/06/04 15:42:20;;;;;;;7.63;3.33;;;20.30;81.00;;;;;;4992806;28;20276;-90
2021/06/04 15:44:47;;;;;;;5.05;3.45;;;20.10;84.20;;;;;;4991132;28;20231;-89
2021/06/04 15:47:14;;;;;;;3.40;3.10;;;19.90;86.50;;;;;;5006488;28;20235;-88
2021/06/04 15:49:40;;;;;;;3.97;3.08;;;19.70;88.40;;;;;;5004723;28;20283;-88